Storrs Mansfield, CT

3:59 PM EST on January 25, 2015 (GMT -0500)
Westover Air Reserve Base / Metropolitan Airport | Change Station
CLOSE
Current Station
Airport
Location: Chicopee,
Elevation: 246 ft
Nearby Weather Stations
Active Advisory: Blizzard Warning Active Notice: Public Information Statement

Elev 246 ft 42.19 °N, 72.53 °W | Updated 1 hour ago

Clear
Clear
32 °F
Feels Like 20 °F
N
17
Wind Variable Wind from West
Gusts 23 mph

Today
High -- | Low -- °F
--% Chance of Precip.
Yesterday
High -- | Low -- °F
Precip. -- in
7:07 AM 4:55 PM
Waxing Crescent, 35% visible
Pressure 29.79 in
Visibility 10.0 miles
Clouds Clear
Windchill 20 °F
Dew Point 8 °F
Humidity 37%
Rainfall 0.02 in
Snow Depth Not available.
UV 1 out of 12
Pollen .10 out of 12
Air Quality Not available.
Flu Activity Not available.
METAR KCEF 251958Z AUTO 28015G20KT 10SM CLR 00/M14 A2976 RMK AO2 SLP086 T10031136

More Conditions Fewer Conditions

Pressure 29.79 in
Visibility 10.0 miles
Clouds Clear
Windchill 20 °F
Dew Point 8 °F
Humidity 37%
Rainfall 0.02 in
Snow Depth Not available.
UV 1 out of 12
Pollen .10 out of 12
Air Quality Not available.
Flu Activity Not available.
METAR KCEF 251958Z AUTO 28015G20KT 10SM CLR 00/M14 A2976 RMK AO2 SLP086 T10031136

More Conditions Fewer Conditions

10-Day Weather Forecast

Almanac

Astronomy

Jan. 25, 2015 Rise Set
Actual Time
Civil Twilight
Nautical Twilight
Astronomical Twilight
Moon
Length of Visible Light
Length of Day
Tomorrow will be .
, % of the Moon is Illuminated

Today's Extremes

State Highs State Lows

Community

WunderPhotos

Upload Photos

1,790,041 photos uploaded!

WunderBlogs® & News

Nearby

Air Quality

  Air Quality AQ Index Pollutant
Not available.

Snow Depth

Station Depth Elevation

Earthquake Activity

City Distance Mag. Time & Date
Minimum magnitude displayed is 2.5.

Coastal Water Temperatures

Place Temperature

Nearby Weather Stations